Time;durP1;ratioP1;P1;durP2;ratioP2;P2;SDS_P1;SDS_P2;PMS_P1;PMS_P2;Temp;Humidity;BMP_temperature;BMP_pressure;BME280_temperature;BME280_humidity;BME280_pressure;Samples;Min_cycle;Max_cycle;Signal;HPM_P1;HPM_P2
2024/04/07 00:00:49;;;;;;;1999.90;999.90;;;20.20;99.90;;;;;;5067894;28;20043;-67
2024/04/07 00:03:17;;;;;;;1999.90;999.90;;;20.20;99.90;;;;;;5067112;28;20025;-67
2024/04/07 00:05:44;;;;;;;1999.90;999.90;;;20.30;99.90;;;;;;5071098;28;20039;-67
2024/04/07 00:08:10;;;;;;;1999.90;999.90;;;20.20;99.90;;;;;;5070473;28;20131;-67
2024/04/07 00:10:37;;;;;;;1999.90;999.90;;;20.10;99.90;;;;;;5065852;28;20397;-67
2024/04/07 00:13:04;;;;;;;1999.90;999.90;;;20.10;99.90;;;;;;5062272;28;20033;-67
2024/04/07 00:15:30;;;;;;;1999.90;999.90;;;20.20;99.90;;;;;;5068053;28;20039;-66
2024/04/07 00:17:56;;;;;;;1999.90;999.90;;;20.10;99.90;;;;;;5056150;28;20021;-67
2024/04/07 00:20:21;;;;;;;1999.90;999.90;;;19.80;99.90;;;;;;5066429;28;20033;-66
2024/04/07 00:22:47;;;;;;;1999.90;999.90;;;20.00;99.90;;;;;;5061561;28;20493;-66
2024/04/07 00:25:13;;;;;;;1999.90;999.90;;;19.80;99.90;;;;;;5065061;28;20029;-67
2024/04/07 00:27:38;;;;;;;1999.90;999.90;;;19.60;99.90;;;;;;5060454;28;20374;-67
2024/04/07 00:30:05;;;;;;;1999.90;999.90;;;19.70;99.90;;;;;;5069095;28;20117;-67
2024/04/07 00:32:30;;;;;;;1999.90;999.90;;;19.70;99.90;;;;;;5066658;28;20058;-66
2024/04/07 00:34:56;;;;;;;1999.90;999.90;;;19.70;99.90;;;;;;5062945;28;20119;-67
2024/04/07 00:37:22;;;;;;;1999.90;999.90;;;19.70;99.90;;;;;;5073552;28;20428;-67
2024/04/07 00:39:48;;;;;;;1999.90;999.90;;;19.60;99.90;;;;;;5069424;28;20060;-67
2024/04/07 00:42:13;;;;;;;1999.90;999.90;;;19.60;99.90;;;;;;5065293;28;20039;-67
2024/04/07 00:44:39;;;;;;;1999.90;999.90;;;19.50;99.90;;;;;;5067622;28;20035;-66
2024/04/07 00:47:05;;;;;;;1999.90;999.90;;;19.40;99.90;;;;;;5067958;28;20035;-67
2024/04/07 00:49:33;;;;;;;1999.90;999.90;;;19.40;99.90;;;;;;5053107;28;20052;-67
2024/04/07 00:51:58;;;;;;;1999.90;999.90;;;19.40;99.90;;;;;;5066718;28;20041;-67
2024/04/07 00:54:27;;;;;;;1999.90;999.90;;;19.40;99.90;;;;;;5063811;28;20025;-66
2024/04/07 00:56:52;;;;;;;1999.90;999.90;;;19.40;99.90;;;;;;5068220;28;20036;-66
2024/04/07 00:59:18;;;;;;;1999.90;999.90;;;19.60;99.90;;;;;;5056066;28;20059;-66
2024/04/07 01:01:45;;;;;;;1999.90;999.90;;;19.70;99.90;;;;;;5062129;28;20378;-66
2024/04/07 01:04:10;;;;;;;1999.90;999.90;;;19.60;99.90;;;;;;5056745;28;20067;-66
2024/04/07 01:06:36;;;;;;;1999.90;999.90;;;19.70;99.90;;;;;;5065376;28;20056;-67
2024/04/07 01:09:02;;;;;;;1999.90;999.90;;;19.60;99.90;;;;;;5071941;28;20033;-67
2024/04/07 01:11:29;;;;;;;1999.90;999.90;;;19.60;99.90;;;;;;5062752;28;20138;-66
2024/04/07 01:13:55;;;;;;;1999.90;999.90;;;19.50;99.90;;;;;;5066994;28;20443;-66
2024/04/07 01:16:22;;;;;;;1999.90;999.90;;;19.30;99.90;;;;;;5072627;28;20052;-67
2024/04/07 01:18:47;;;;;;;1999.90;999.90;;;19.20;99.90;;;;;;5066060;28;20036;-67
2024/04/07 01:21:13;;;;;;;1999.90;999.90;;;19.10;99.90;;;;;;5063101;28;20025;-66
2024/04/07 01:23:39;;;;;;;1999.90;999.90;;;19.00;99.90;;;;;;5059176;28;20025;-67
2024/04/07 01:26:05;;;;;;;1999.90;999.90;;;18.90;99.90;;;;;;5065054;28;20035;-67
2024/04/07 01:28:31;;;;;;;1999.90;999.90;;;18.90;99.90;;;;;;5059675;28;20617;-67
2024/04/07 01:30:57;;;;;;;1999.90;999.90;;;18.80;99.90;;;;;;5061464;28;20029;-67
2024/04/07 01:33:22;;;;;;;1999.90;999.90;;;18.80;99.90;;;;;;5061220;28;20396;-67
2024/04/07 01:35:48;;;;;;;1999.90;999.90;;;18.80;99.90;;;;;;5059373;28;20032;-67
2024/04/07 01:38:15;;;;;;;1999.90;999.90;;;18.70;99.90;;;;;;5069878;28;20025;-68
2024/04/07 01:40:40;;;;;;;1999.90;999.90;;;18.80;99.90;;;;;;5070742;28;20031;-67
2024/04/07 01:43:06;;;;;;;1999.90;999.90;;;18.70;99.90;;;;;;5068238;28;20033;-67
2024/04/07 01:45:32;;;;;;;1999.90;999.90;;;18.70;99.90;;;;;;5057195;28;20070;-67
2024/04/07 01:47:57;;;;;;;1999.90;999.90;;;18.70;99.90;;;;;;5058971;28;20115;-67
2024/04/07 01:50:23;;;;;;;1999.90;999.90;;;18.70;99.90;;;;;;5070433;28;20056;-67
2024/04/07 01:52:49;;;;;;;1999.90;999.90;;;18.60;99.90;;;;;;5068690;28;20128;-67
2024/04/07 01:55:15;;;;;;;1999.90;999.90;;;18.50;99.90;;;;;;5068556;28;20042;-67
2024/04/07 01:57:41;;;;;;;1999.90;999.90;;;18.40;99.90;;;;;;5067295;28;20028;-66
2024/04/07 02:00:07;;;;;;;1999.90;999.90;;;18.30;99.90;;;;;;5065399;28;20025;-67
2024/04/07 02:02:34;;;;;;;1999.90;999.90;;;18.30;99.90;;;;;;5060313;28;20060;-66
2024/04/07 02:04:59;;;;;;;1999.90;999.90;;;18.40;99.90;;;;;;5060261;28;20033;-67
2024/04/07 02:07:26;;;;;;;1999.90;999.90;;;18.30;99.90;;;;;;5065557;28;20043;-67
2024/04/07 02:09:51;;;;;;;1999.90;999.90;;;18.40;99.90;;;;;;5058921;28;20020;-67
2024/04/07 02:12:17;;;;;;;1999.90;999.90;;;18.30;99.90;;;;;;5071120;28;20032;-67
2024/04/07 02:14:43;;;;;;;1999.90;999.90;;;18.30;99.90;;;;;;5061962;28;20078;-67
2024/04/07 02:17:11;;;;;;;1999.90;999.90;;;18.20;99.90;;;;;;5062267;28;20100;-68
2024/04/07 02:19:37;;;;;;;1999.90;999.90;;;18.00;99.90;;;;;;5064258;28;21256;-67
2024/04/07 02:22:04;;;;;;;1999.90;999.90;;;18.00;99.90;;;;;;5069848;28;20113;-67
2024/04/07 02:24:29;;;;;;;1999.90;999.90;;;17.90;99.90;;;;;;5058821;28;20020;-67
2024/04/07 02:26:55;;;;;;;1999.90;999.90;;;17.90;99.90;;;;;;5058190;28;20032;-67
2024/04/07 02:29:21;;;;;;;1999.90;999.90;;;17.90;99.90;;;;;;5062250;28;20021;-67
2024/04/07 02:31:47;;;;;;;1999.90;999.90;;;17.90;99.90;;;;;;5062933;28;20043;-67
2024/04/07 02:34:13;;;;;;;1999.90;999.90;;;17.90;99.90;;;;;;5061352;28;20032;-67
2024/04/07 02:36:40;;;;;;;1999.90;999.90;;;17.90;99.90;;;;;;5069348;28;20032;-66
2024/04/07 02:39:09;;;;;;;1999.90;999.90;;;17.80;99.90;;;;;;5063332;28;20550;-66
2024/04/07 02:41:40;;;;;;;1999.90;999.90;;;17.80;99.90;;;;;;5066497;28;20553;-66
2024/04/07 02:44:06;;;;;;;1999.90;999.90;;;17.60;99.90;;;;;;5061469;28;20025;-67
2024/04/07 02:49:17;;;;;;;1999.90;999.90;;;17.50;99.90;;;;;;5066526;28;20062;-66
2024/04/07 02:51:43;;;;;;;1999.90;999.90;;;17.50;99.90;;;;;;5068565;28;20036;-66
2024/04/07 02:54:11;;;;;;;1999.90;999.90;;;17.50;99.90;;;;;;5061001;28;20024;-66
2024/04/07 02:56:37;;;;;;;1999.90;999.90;;;17.50;99.90;;;;;;5070157;28;20025;-67
2024/04/07 02:59:03;;;;;;;1999.90;999.90;;;17.40;99.90;;;;;;5063088;28;20448;-66
2024/04/07 03:01:29;;;;;;;1999.90;999.90;;;17.40;99.90;;;;;;5063604;28;20100;-66
2024/04/07 03:03:55;;;;;;;1999.90;999.90;;;17.50;99.90;;;;;;5055214;28;20424;-66
2024/04/07 03:06:21;;;;;;;1999.90;999.90;;;17.40;99.90;;;;;;5058734;28;20032;-66
2024/04/07 03:08:48;;;;;;;1999.90;999.90;;;17.50;99.90;;;;;;5059378;28;20028;-66
2024/04/07 03:11:13;;;;;;;1999.90;999.90;;;17.40;99.90;;;;;;5064362;28;20086;-67
2024/04/07 03:13:39;;;;;;;1999.90;999.90;;;17.40;99.90;;;;;;5062946;28;20524;-66
2024/04/07 03:16:14;;;;;;;1999.90;999.90;;;17.40;99.90;;;;;;5069490;28;20020;-66
2024/04/07 03:18:40;;;;;;;1999.90;999.90;;;17.40;99.90;;;;;;5057043;28;20363;-66
2024/04/07 03:21:06;;;;;;;1999.90;999.90;;;17.40;99.90;;;;;;5069807;28;20013;-66
2024/04/07 03:23:32;;;;;;;1999.90;999.90;;;17.40;99.90;;;;;;5067921;28;20028;-66
2024/04/07 03:25:58;;;;;;;1999.90;999.90;;;17.40;99.90;;;;;;5059700;28;20020;-66
2024/04/07 03:28:24;;;;;;;1999.90;999.90;;;17.40;99.90;;;;;;5053101;28;20086;-66
2024/04/07 03:30:52;;;;;;;1999.90;999.90;;;17.40;99.90;;;;;;5061716;28;20029;-66
2024/04/07 03:33:18;;;;;;;1999.90;999.90;;;17.40;99.90;;;;;;5056898;28;20536;-66
2024/04/07 03:35:44;;;;;;;1999.90;999.90;;;17.50;99.90;;;;;;5066016;28;20023;-66
2024/04/07 03:38:10;;;;;;;1999.90;999.90;;;17.30;99.90;;;;;;5063599;28;20071;-66
2024/04/07 03:40:40;;;;;;;1999.90;999.90;;;17.30;99.90;;;;;;5063241;28;20029;-66
2024/04/07 03:43:07;;;;;;;1999.90;999.90;;;17.20;99.90;;;;;;5058244;28;20033;-66
2024/04/07 03:45:33;;;;;;;1999.90;999.90;;;17.20;99.90;;;;;;5053057;28;20035;-66
2024/04/07 03:47:59;;;;;;;1999.90;999.90;;;17.20;99.90;;;;;;5050457;28;20401;-66
2024/04/07 03:50:24;;;;;;;1999.90;999.90;;;17.30;99.90;;;;;;5060346;28;20024;-66
2024/04/07 03:52:50;;;;;;;1999.90;999.90;;;17.30;99.90;;;;;;5071392;28;20037;-66
2024/04/07 03:55:16;;;;;;;1999.90;999.90;;;17.20;99.90;;;;;;5067572;28;20490;-67
2024/04/07 03:57:42;;;;;;;1999.90;999.90;;;17.20;99.90;;;;;;5067926;28;20469;-66
2024/04/07 04:00:07;;;;;;;1999.90;999.90;;;17.30;99.90;;;;;;5060964;28;20021;-66
2024/04/07 04:02:33;;;;;;;1999.90;999.90;;;17.20;99.90;;;;;;5069200;28;20397;-66
2024/04/07 04:05:03;;;;;;;1999.90;999.90;;;17.30;99.90;;;;;;5069020;28;20607;-66
2024/04/07 04:07:29;;;;;;;1999.90;999.90;;;17.30;99.90;;;;;;5065844;28;20044;-66
2024/04/07 04:09:57;;;;;;;1999.90;999.90;;;17.30;99.90;;;;;;5067498;28;20047;-66
2024/04/07 04:12:24;;;;;;;1999.90;999.90;;;17.40;99.90;;;;;;5064391;28;20044;-66
2024/04/07 04:14:50;;;;;;;1999.90;999.90;;;17.30;99.90;;;;;;5053012;28;20025;-66
2024/04/07 04:17:16;;;;;;;1999.90;999.90;;;17.30;99.90;;;;;;5055033;28;20033;-66
2024/04/07 04:19:42;;;;;;;1999.90;999.90;;;17.30;99.90;;;;;;5063085;28;20021;-66
2024/04/07 04:22:07;;;;;;;1999.90;999.90;;;17.20;99.90;;;;;;5070877;28;20417;-65
2024/04/07 04:24:34;;;;;;;1999.90;999.90;;;17.20;99.90;;;;;;5057357;28;20037;-66
2024/04/07 04:27:00;;;;;;;1999.90;999.90;;;17.00;99.90;;;;;;5057888;28;20139;-66
2024/04/07 04:29:26;;;;;;;1999.90;999.90;;;17.00;99.90;;;;;;5061896;28;20074;-66
2024/04/07 04:31:51;;;;;;;1999.90;999.90;;;16.90;99.90;;;;;;5068717;28;20571;-65
2024/04/07 04:34:17;;;;;;;1999.90;999.90;;;16.80;99.90;;;;;;5062024;28;20059;-66
2024/04/07 04:36:43;;;;;;;1999.90;999.90;;;16.90;99.90;;;;;;5072132;28;20385;-66
2024/04/07 04:39:08;;;;;;;1999.90;999.90;;;16.90;99.90;;;;;;5070850;28;20515;-66
2024/04/07 04:41:34;;;;;;;1999.90;999.90;;;17.00;99.90;;;;;;5066333;28;20396;-65
2024/04/07 04:44:00;;;;;;;1999.90;999.90;;;17.00;99.90;;;;;;5063270;28;20017;-66
2024/04/07 04:46:26;;;;;;;1999.90;999.90;;;16.90;99.90;;;;;;5063830;28;20528;-66
2024/04/07 04:48:52;;;;;;;1999.90;999.90;;;16.90;99.90;;;;;;5068121;28;20021;-66
2024/04/07 04:51:17;;;;;;;1999.90;999.90;;;16.90;99.90;;;;;;5070503;28;20040;-66
2024/04/07 04:53:44;;;;;;;1999.90;999.90;;;16.90;99.90;;;;;;5065728;28;20053;-68
2024/04/07 04:56:10;;;;;;;1999.90;999.90;;;16.90;99.90;;;;;;5070606;28;20133;-66
2024/04/07 04:58:36;;;;;;;1999.90;999.90;;;17.00;99.90;;;;;;5066209;28;20542;-66
2024/04/07 05:01:12;;;;;;;1999.90;999.90;;;17.00;99.90;;;;;;5063192;28;20071;-66
2024/04/07 05:03:38;;;;;;;1999.90;999.90;;;17.00;99.90;;;;;;5063067;28;20043;-65
2024/04/07 05:06:13;;;;;;;1999.90;999.90;;;16.90;99.90;;;;;;5056341;28;20047;-66
2024/04/07 05:08:41;;;;;;;1999.90;999.90;;;16.80;99.90;;;;;;5060971;28;20378;-65
2024/04/07 05:11:07;;;;;;;1999.90;999.90;;;16.70;99.90;;;;;;5066635;28;20036;-66
2024/04/07 05:13:34;;;;;;;1999.90;999.90;;;16.50;99.90;;;;;;5064185;28;20032;-66
2024/04/07 05:16:00;;;;;;;1999.90;999.90;;;16.60;99.90;;;;;;5058736;28;20100;-65
2024/04/07 05:18:26;;;;;;;1999.90;999.90;;;16.70;99.90;;;;;;5068511;28;20029;-66
2024/04/07 05:20:53;;;;;;;1999.90;999.90;;;16.60;99.90;;;;;;5068474;28;20108;-66
2024/04/07 05:23:19;;;;;;;1999.90;999.90;;;16.70;99.90;;;;;;5064476;28;20048;-66
2024/04/07 05:25:45;;;;;;;1999.90;999.90;;;16.70;99.90;;;;;;5067895;28;20025;-66
2024/04/07 05:28:11;;;;;;;1999.90;999.90;;;16.70;99.90;;;;;;5071258;28;20032;-66
2024/04/07 05:30:37;;;;;;;1999.90;999.90;;;16.60;99.90;;;;;;5068194;28;20043;-65
2024/04/07 05:33:03;;;;;;;1999.90;999.90;;;16.50;99.90;;;;;;5072222;28;20063;-66
2024/04/07 05:35:29;;;;;;;1999.90;999.90;;;16.70;99.90;;;;;;5063970;28;20021;-66
2024/04/07 05:37:56;;;;;;;1999.90;999.90;;;16.80;99.90;;;;;;5066208;28;20036;-66
2024/04/07 05:40:21;;;;;;;1999.90;999.90;;;16.70;99.90;;;;;;5067251;28;20364;-66
2024/04/07 05:42:47;;;;;;;1999.90;999.90;;;16.70;99.90;;;;;;5062572;28;20107;-66
2024/04/07 05:45:15;;;;;;;1999.90;999.90;;;16.70;99.90;;;;;;5065386;28;20062;-66
2024/04/07 05:47:41;;;;;;;1999.90;999.90;;;16.80;99.90;;;;;;5069187;28;20036;-65
2024/04/07 05:50:06;;;;;;;1999.90;999.90;;;16.80;99.90;;;;;;5066751;28;20035;-65
2024/04/07 05:52:33;;;;;;;1999.90;999.90;;;16.70;99.90;;;;;;5064437;28;20102;-65
2024/04/07 05:54:58;;;;;;;1999.90;999.90;;;16.70;99.90;;;;;;5071123;28;20518;-66
2024/04/07 05:57:24;;;;;;;1999.90;999.90;;;16.70;99.90;;;;;;5067945;28;20044;-65
2024/04/07 05:59:51;;;;;;;1999.90;999.90;;;16.80;99.90;;;;;;5065193;28;20032;-65
2024/04/07 06:02:16;;;;;;;1999.90;999.90;;;16.80;99.90;;;;;;5071066;28;20032;-65
2024/04/07 06:04:43;;;;;;;1999.90;999.90;;;16.70;99.90;;;;;;5071390;28;20086;-65
2024/04/07 06:07:09;;;;;;;1999.90;999.90;;;16.80;99.90;;;;;;5069126;28;20025;-65
2024/04/07 06:09:35;;;;;;;1999.90;999.90;;;16.80;99.90;;;;;;5058156;28;20036;-65
2024/04/07 06:12:02;;;;;;;1999.90;999.90;;;16.80;99.90;;;;;;5065093;28;20024;-66
2024/04/07 06:14:28;;;;;;;1999.90;999.90;;;16.60;99.90;;;;;;5062462;28;20119;-65
2024/04/07 06:16:54;;;;;;;1999.90;999.90;;;16.70;99.90;;;;;;5068144;28;20115;-65
2024/04/07 06:19:19;;;;;;;1999.90;999.90;;;16.70;99.90;;;;;;5071246;28;20468;-65
2024/04/07 06:21:45;;;;;;;1999.90;999.90;;;16.70;99.90;;;;;;5070828;28;20036;-65
2024/04/07 06:24:11;;;;;;;1999.90;999.90;;;16.70;99.90;;;;;;5071229;28;20108;-65
2024/04/07 06:26:36;;;;;;;1999.90;999.90;;;16.80;99.90;;;;;;5066696;28;20533;-65
2024/04/07 06:29:02;;;;;;;1999.90;999.90;;;16.90;99.90;;;;;;5059145;28;20020;-66
2024/04/07 06:31:28;;;;;;;1999.90;999.90;;;16.80;99.90;;;;;;5070749;28;20108;-66
2024/04/07 06:33:54;;;;;;;1999.90;999.90;;;16.80;99.90;;;;;;5069907;28;20103;-66
2024/04/07 06:36:19;;;;;;;1999.90;999.90;;;16.90;99.90;;;;;;5070979;28;20025;-65
2024/04/07 06:38:45;;;;;;;1999.90;999.90;;;17.00;99.90;;;;;;5064455;28;20056;-66
2024/04/07 06:41:12;;;;;;;1999.90;999.90;;;17.20;99.90;;;;;;5061634;28;20025;-66
2024/04/07 06:43:38;;;;;;;1999.90;999.90;;;17.30;99.90;;;;;;5068587;28;20027;-66
2024/04/07 06:46:04;;;;;;;1999.90;999.90;;;17.30;99.90;;;;;;5070431;28;20050;-66
2024/04/07 06:48:30;;;;;;;1999.90;999.90;;;17.30;99.90;;;;;;5065961;28;20472;-66
2024/04/07 06:50:55;;;;;;;1999.90;999.90;;;17.30;99.90;;;;;;5070691;28;20040;-66
2024/04/07 06:53:22;;;;;;;1999.90;999.90;;;17.30;99.90;;;;;;5056759;28;20041;-66
2024/04/07 06:55:47;;;;;;;1999.90;999.90;;;17.30;99.90;;;;;;5059589;28;20090;-67
2024/04/07 06:58:13;;;;;;;1999.90;999.90;;;17.40;99.90;;;;;;5068882;28;20033;-66
2024/04/07 07:00:40;;;;;;;1999.90;999.90;;;17.20;99.90;;;;;;5070956;28;20449;-66
2024/04/07 07:03:05;;;;;;;1999.90;999.90;;;17.20;99.90;;;;;;5068778;28;20028;-67
2024/04/07 07:05:31;;;;;;;1999.90;999.90;;;17.00;99.90;;;;;;5068903;28;20538;-66
2024/04/07 07:07:57;;;;;;;1999.90;999.90;;;17.00;99.90;;;;;;5057175;28;20388;-66
2024/04/07 07:10:23;;;;;;;1999.90;999.90;;;17.00;99.90;;;;;;5058650;28;20028;-66
2024/04/07 07:12:49;;;;;;;1999.90;999.90;;;17.00;99.90;;;;;;5069490;28;20032;-66
2024/04/07 07:15:14;;;;;;;1999.90;999.90;;;17.10;99.90;;;;;;5070681;28;20469;-66
2024/04/07 07:17:40;;;;;;;1999.90;999.90;;;17.10;99.90;;;;;;5068280;28;20036;-66
2024/04/07 07:20:06;;;;;;;1999.90;999.90;;;17.10;99.90;;;;;;5069231;28;20025;-66
2024/04/07 07:22:32;;;;;;;1999.90;999.90;;;17.10;99.90;;;;;;5070018;28;20028;-66
2024/04/07 07:24:57;;;;;;;1999.90;999.90;;;17.10;99.90;;;;;;5069000;28;20078;-66
2024/04/07 07:27:23;;;;;;;1999.90;999.90;;;17.20;99.90;;;;;;5073106;28;20035;-66
2024/04/07 07:29:49;;;;;;;1999.90;999.90;;;17.30;99.90;;;;;;5074629;28;20063;-66
2024/04/07 07:32:15;;;;;;;1999.90;999.90;;;17.30;99.90;;;;;;5073772;28;20086;-66
2024/04/07 07:34:41;;;;;;;1999.90;999.90;;;17.20;99.90;;;;;;5065570;28;20028;-66
2024/04/07 07:37:06;;;;;;;1999.90;999.90;;;17.30;99.90;;;;;;5073685;28;20025;-66
2024/04/07 07:39:32;;;;;;;1999.90;999.90;;;17.40;99.90;;;;;;5074520;28;20155;-66
2024/04/07 07:41:58;;;;;;;1999.90;999.90;;;17.50;99.90;;;;;;5074107;28;20373;-66
2024/04/07 07:44:23;;;;;;;1999.90;999.90;;;17.50;99.90;;;;;;5069191;28;20358;-66
2024/04/07 07:46:49;;;;;;;1999.90;999.90;;;17.60;99.90;;;;;;5074360;28;20020;-66
2024/04/07 07:49:15;;;;;;;1999.90;999.90;;;17.50;99.90;;;;;;5072331;28;20496;-66
2024/04/07 07:51:41;;;;;;;1999.90;999.90;;;17.60;99.90;;;;;;5060524;28;20025;-66
2024/04/07 07:54:07;;;;;;;1999.90;999.90;;;17.60;99.90;;;;;;5073710;28;20032;-66
2024/04/07 07:56:32;;;;;;;1999.90;999.90;;;17.70;99.90;;;;;;5072629;28;20023;-66
2024/04/07 07:58:58;;;;;;;1999.90;999.90;;;17.80;99.90;;;;;;5068731;28;20032;-65
2024/04/07 08:01:24;;;;;;;1999.90;999.90;;;17.90;99.90;;;;;;5073920;28;20091;-66
2024/04/07 08:03:49;;;;;;;1999.90;999.90;;;18.20;99.90;;;;;;5074113;28;20115;-66
2024/04/07 08:06:15;;;;;;;1999.90;999.90;;;18.20;99.90;;;;;;5073525;28;20019;-66
2024/04/07 08:08:41;;;;;;;1999.90;999.90;;;18.20;99.90;;;;;;5073983;28;20465;-66
2024/04/07 08:11:06;;;;;;;1999.90;999.90;;;18.20;99.90;;;;;;5071624;28;20017;-66
2024/04/07 08:13:33;;;;;;;1999.90;999.90;;;18.30;99.90;;;;;;5066742;28;20041;-66
2024/04/07 08:15:59;;;;;;;1999.90;999.90;;;18.40;99.90;;;;;;5060352;28;20526;-67
2024/04/07 08:18:24;;;;;;;1999.90;999.90;;;18.40;99.90;;;;;;5073697;28;20020;-66
2024/04/07 08:20:50;;;;;;;1999.90;999.90;;;18.40;99.90;;;;;;5071476;28;20066;-66
2024/04/07 08:23:16;;;;;;;1999.90;999.90;;;18.50;99.90;;;;;;5073387;28;20552;-66
2024/04/07 08:25:43;;;;;;;1999.90;999.90;;;18.70;99.90;;;;;;5067220;28;20020;-66
2024/04/07 08:28:08;;;;;;;1999.90;999.90;;;18.70;99.90;;;;;;5073598;28;20060;-65
2024/04/07 08:30:34;;;;;;;1999.90;999.90;;;18.70;99.90;;;;;;5073374;28;20401;-66
2024/04/07 08:33:00;;;;;;;1999.90;999.90;;;18.70;99.90;;;;;;5073345;28;20524;-66
2024/04/07 08:35:26;;;;;;;1999.90;999.90;;;18.70;99.90;;;;;;5073024;28;20017;-66
2024/04/07 08:37:53;;;;;;;1999.90;999.90;;;18.80;99.90;;;;;;5072461;28;20036;-66
2024/04/07 08:40:18;;;;;;;1999.90;999.90;;;18.80;99.90;;;;;;5069522;28;20024;-66
2024/04/07 08:42:44;;;;;;;1999.90;999.90;;;18.90;99.90;;;;;;5073068;28;20029;-66
2024/04/07 08:45:11;;;;;;;1999.90;999.90;;;18.90;99.90;;;;;;5071530;28;20078;-66
2024/04/07 08:47:38;;;;;;;1999.90;999.90;;;18.90;99.90;;;;;;5073281;28;20033;-66
2024/04/07 08:50:05;;;;;;;1999.90;999.90;;;18.80;99.90;;;;;;5066998;28;20158;-66
2024/04/07 08:52:31;;;;;;;1999.90;999.90;;;18.70;99.90;;;;;;5065676;28;20503;-68
2024/04/07 08:54:58;;;;;;;1999.90;999.90;;;18.80;99.90;;;;;;5072825;28;20017;-66
2024/04/07 08:57:24;;;;;;;1999.90;999.90;;;18.80;99.90;;;;;;5073029;28;20029;-66
2024/04/07 08:59:52;;;;;;;1999.90;999.90;;;18.80;99.90;;;;;;5072503;28;20024;-66
2024/04/07 09:02:18;;;;;;;1999.90;999.90;;;18.80;99.90;;;;;;5072684;28;20035;-66
2024/04/07 09:04:44;;;;;;;1999.90;999.90;;;18.80;99.90;;;;;;5069248;28;20019;-66
2024/04/07 09:07:13;;;;;;;1999.90;999.90;;;18.80;99.90;;;;;;5072656;28;20107;-68
2024/04/07 09:09:39;;;;;;;1999.90;999.90;;;18.80;99.90;;;;;;5072771;28;20021;-66
2024/04/07 09:12:07;;;;;;;1999.90;999.90;;;18.90;99.90;;;;;;5072481;28;20064;-65
2024/04/07 09:14:34;;;;;;;1999.90;999.90;;;19.10;99.90;;;;;;5072646;28;20024;-66
2024/04/07 09:17:07;;;;;;;1999.90;999.90;;;19.20;99.90;;;;;;5072598;28;20539;-66
2024/04/07 09:19:38;;;;;;;1999.90;999.90;;;19.20;99.90;;;;;;5058169;28;20099;-66
2024/04/07 09:22:07;;;;;;;1999.90;999.90;;;19.30;99.90;;;;;;5071264;28;20033;-66
2024/04/07 09:24:35;;;;;;;1999.90;999.90;;;19.20;99.90;;;;;;5072004;28;20139;-66
2024/04/07 09:27:06;;;;;;;1999.90;999.90;;;19.20;99.90;;;;;;5071040;28;20057;-66
2024/04/07 09:29:34;;;;;;;1999.90;999.90;;;19.20;99.90;;;;;;5072606;28;20021;-66
2024/04/07 09:32:00;;;;;;;1999.90;999.90;;;19.20;99.90;;;;;;5070594;28;20028;-66
2024/04/07 09:34:27;;;;;;;1999.90;999.90;;;19.30;99.90;;;;;;5069576;28;20036;-66
2024/04/07 09:36:53;;;;;;;1999.90;999.90;;;19.20;99.90;;;;;;5070675;28;20052;-66
2024/04/07 09:39:19;;;;;;;1999.90;999.90;;;19.10;99.90;;;;;;5070297;28;20027;-66
2024/04/07 09:41:47;;;;;;;1999.90;999.90;;;19.30;99.90;;;;;;5072353;28;20020;-65
2024/04/07 09:44:19;;;;;;;1999.90;999.90;;;19.30;99.90;;;;;;5071932;28;20029;-66
2024/04/07 09:46:45;;;;;;;1999.90;999.90;;;19.30;99.90;;;;;;5070897;28;20059;-66
2024/04/07 09:49:12;;;;;;;1999.90;999.90;;;19.30;99.90;;;;;;5071874;28;20085;-65
2024/04/07 09:51:43;;;;;;;1999.90;999.90;;;19.10;99.90;;;;;;5071425;28;20031;-65
2024/04/07 09:54:28;;;;;;;1999.90;999.90;;;19.10;99.90;;;;;;5071832;28;20116;-66
2024/04/07 09:56:54;;;;;;;1999.90;999.90;;;19.00;99.90;;;;;;5059928;28;20032;-66
2024/04/07 09:59:21;;;;;;;1999.90;999.90;;;19.10;99.90;;;;;;5071406;28;20025;-66
2024/04/07 10:01:48;;;;;;;1999.90;999.90;;;19.10;99.90;;;;;;5071361;28;20056;-66
2024/04/07 10:04:15;;;;;;;1999.90;999.90;;;19.30;99.90;;;;;;5071728;28;20016;-66
2024/04/07 10:06:41;;;;;;;1999.90;999.90;;;19.30;99.90;;;;;;5071736;28;20093;-66
2024/04/07 10:09:09;;;;;;;1999.90;999.90;;;19.40;99.90;;;;;;5069562;28;20470;-66
2024/04/07 10:11:46;;;;;;;1999.90;999.90;;;19.60;99.90;;;;;;5071492;28;20146;-66
2024/04/07 10:14:17;;;;;;;1999.90;999.90;;;19.60;99.90;;;;;;5071586;28;20078;-66
2024/04/07 10:16:45;;;;;;;1999.90;999.90;;;19.60;99.90;;;;;;5071364;28;20032;-68
2024/04/07 10:19:12;;;;;;;1999.90;999.90;;;19.60;99.90;;;;;;5071401;28;20044;-66
2024/04/07 10:21:39;;;;;;;1999.90;999.90;;;19.60;99.90;;;;;;5068410;28;20024;-66
2024/04/07 10:24:07;;;;;;;1999.90;999.90;;;19.50;99.90;;;;;;5069400;28;20024;-67
2024/04/07 10:26:32;;;;;;;1999.90;999.90;;;19.40;99.90;;;;;;5071305;28;20037;-67
2024/04/07 10:28:58;;;;;;;1999.90;999.90;;;19.50;99.90;;;;;;5069095;28;20039;-67
2024/04/07 10:31:31;;;;;;;1999.90;999.90;;;19.60;99.90;;;;;;5061264;28;20108;-67
2024/04/07 10:33:57;;;;;;;1999.90;999.90;;;19.70;99.90;;;;;;5070739;28;20013;-67
2024/04/07 10:36:25;;;;;;;1999.90;999.90;;;19.80;99.90;;;;;;5071516;28;20052;-67
2024/04/07 10:38:57;;;;;;;1999.90;999.90;;;19.90;99.90;;;;;;5070820;28;20021;-67
2024/04/07 10:41:33;;;;;;;1999.90;999.90;;;19.90;99.90;;;;;;5071039;28;20487;-67
2024/04/07 10:44:00;;;;;;;1999.90;999.90;;;19.90;99.90;;;;;;5070913;28;20103;-67
2024/04/07 10:46:26;;;;;;;1999.90;999.90;;;19.90;99.90;;;;;;5069211;28;20024;-67
2024/04/07 10:48:53;;;;;;;1999.90;999.90;;;20.00;99.90;;;;;;5069535;28;20427;-67
2024/04/07 10:51:20;;;;;;;1999.90;999.90;;;20.00;99.90;;;;;;5070876;28;20039;-67
2024/04/07 10:53:55;;;;;;;1999.90;999.90;;;20.00;99.90;;;;;;5071185;28;20105;-66
2024/04/07 10:56:21;;;;;;;1999.90;999.90;;;20.10;99.90;;;;;;5068830;28;20020;-67
2024/04/07 10:58:47;;;;;;;1999.90;999.90;;;20.20;99.90;;;;;;5070703;28;20078;-67
2024/04/07 11:01:13;;;;;;;1999.90;999.90;;;20.00;99.90;;;;;;5070302;28;20017;-67
2024/04/07 11:03:39;;;;;;;1999.90;999.90;;;20.10;99.90;;;;;;5071009;28;20063;-67
2024/04/07 11:06:05;;;;;;;1999.90;999.90;;;20.00;99.90;;;;;;5070416;28;20040;-67
2024/04/07 11:08:32;;;;;;;1999.90;999.90;;;20.00;99.90;;;;;;5070989;28;20473;-67
2024/04/07 11:10:58;;;;;;;1999.90;999.90;;;20.10;99.90;;;;;;5066809;28;20090;-67
2024/04/07 11:13:24;;;;;;;1999.90;999.90;;;20.20;99.90;;;;;;5070531;28;20485;-67
2024/04/07 11:15:53;;;;;;;1999.90;999.90;;;20.30;99.90;;;;;;5070627;28;20013;-67
2024/04/07 11:18:20;;;;;;;1999.90;999.90;;;20.40;99.90;;;;;;5070701;28;20024;-68
2024/04/07 11:20:47;;;;;;;1999.90;999.90;;;20.30;99.90;;;;;;5070683;28;20066;-67
2024/04/07 11:23:13;;;;;;;1999.90;999.90;;;20.40;99.90;;;;;;5068818;28;20113;-67
2024/04/07 11:25:41;;;;;;;1999.90;999.90;;;20.50;99.90;;;;;;5069568;28;20025;-67
2024/04/07 11:28:12;;;;;;;1999.90;999.90;;;20.50;99.90;;;;;;5070154;28;20073;-67
2024/04/07 11:30:58;;;;;;;1999.90;999.90;;;20.60;99.90;;;;;;5068929;28;20021;-68
2024/04/07 11:33:25;;;;;;;1999.90;999.90;;;20.50;99.90;;;;;;5069814;28;20493;-67
2024/04/07 11:35:51;;;;;;;1999.90;999.90;;;20.60;99.90;;;;;;5068964;28;20389;-68
2024/04/07 11:38:16;;;;;;;1999.90;999.90;;;20.50;99.90;;;;;;5062287;28;20033;-67
2024/04/07 11:40:42;;;;;;;1999.90;999.90;;;20.50;99.90;;;;;;5070990;28;20027;-67
2024/04/07 11:43:08;;;;;;;1999.90;999.90;;;20.50;99.90;;;;;;5070041;28;20024;-67
2024/04/07 11:45:34;;;;;;;1999.90;999.90;;;20.50;99.90;;;;;;5070537;28;20024;-67
2024/04/07 11:48:02;;;;;;;1999.90;999.90;;;20.60;99.90;;;;;;5069949;28;20039;-67
2024/04/07 11:50:28;;;;;;;1999.90;999.90;;;20.80;99.90;;;;;;5070283;28;20033;-66
2024/04/07 11:52:55;;;;;;;1999.90;999.90;;;20.80;99.90;;;;;;5067392;28;20110;-67
2024/04/07 11:55:21;;;;;;;1999.90;999.90;;;20.90;99.90;;;;;;5070562;28;20021;-67
2024/04/07 11:57:47;;;;;;;1999.90;999.90;;;20.90;99.90;;;;;;5069947;28;20128;-67